Time;durP1;ratioP1;P1;durP2;ratioP2;P2;SDS_P1;SDS_P2;PMS_P1;PMS_P2;Temp;Humidity;BMP_temperature;BMP_pressure;BME280_temperature;BME280_humidity;BME280_pressure;Samples;Min_cycle;Max_cycle;Signal;HPM_P1;HPM_P2
2022/09/22 00:01:59;;;;;;;4.63;4.23;;;13.50;69.30;;;;;;5075617;28;20437;-71
2022/09/22 00:04:26;;;;;;;4.93;4.47;;;13.50;69.50;;;;;;5074384;28;20475;-73
2022/09/22 00:06:55;;;;;;;7.60;3.93;;;13.50;69.50;;;;;;5075120;28;20450;-72
2022/09/22 00:09:22;;;;;;;7.13;5.10;;;13.40;69.50;;;;;;5074790;28;20514;-72
2022/09/22 00:11:54;;;;;;;5.03;4.63;;;13.40;69.50;;;;;;5074711;28;20463;-72
2022/09/22 00:14:23;;;;;;;4.53;4.13;;;13.30;69.50;;;;;;5074886;28;20481;-72
2022/09/22 00:16:52;;;;;;;5.33;4.90;;;13.40;69.70;;;;;;5074603;28;20446;-72
2022/09/22 00:19:22;;;;;;;6.90;4.30;;;13.30;69.50;;;;;;5074752;28;20460;-72
2022/09/22 00:21:50;;;;;;;4.90;4.40;;;13.30;69.50;;;;;;5075265;28;20479;-72
2022/09/22 00:24:18;;;;;;;4.40;4.10;;;13.20;69.50;;;;;;5074616;28;20475;-72
2022/09/22 00:26:45;;;;;;;4.70;4.30;;;13.20;69.50;;;;;;5074516;28;20452;-72
2022/09/22 00:29:15;;;;;;;5.30;4.80;;;13.20;69.70;;;;;;5074430;28;20484;-72
2022/09/22 00:31:43;;;;;;;6.00;5.30;;;13.20;69.80;;;;;;5074356;28;20447;-71
2022/09/22 00:34:15;;;;;;;5.17;4.67;;;13.10;69.90;;;;;;5074390;28;20476;-71
2022/09/22 00:36:42;;;;;;;5.10;4.70;;;13.10;69.90;;;;;;5074699;28;20447;-72
2022/09/22 00:39:08;;;;;;;4.33;3.90;;;13.10;70.00;;;;;;5075199;28;20445;-72
2022/09/22 00:41:39;;;;;;;5.20;4.70;;;13.00;70.00;;;;;;5074949;28;20436;-71
2022/09/22 00:44:37;;;;;;;5.27;4.30;;;13.00;70.10;;;;;;5074713;28;20472;-71
2022/09/22 00:47:13;;;;;;;5.60;3.90;;;13.00;70.20;;;;;;5074295;28;20481;-71
2022/09/22 00:49:46;;;;;;;7.73;4.60;;;12.90;70.10;;;;;;5074241;28;20477;-71
2022/09/22 00:52:16;;;;;;;5.90;4.00;;;12.90;70.10;;;;;;5074384;28;20438;-72
2022/09/22 00:54:43;;;;;;;4.60;4.20;;;12.90;70.20;;;;;;5073772;28;20918;-72
2022/09/22 00:57:14;;;;;;;6.07;4.00;;;12.90;70.30;;;;;;5073599;28;20944;-71
2022/09/22 00:59:45;;;;;;;4.57;4.17;;;12.80;70.30;;;;;;5073778;28;20448;-71
2022/09/22 01:02:12;;;;;;;4.80;4.40;;;12.80;70.40;;;;;;5074019;28;20448;-71
2022/09/22 01:04:40;;;;;;;5.80;4.80;;;12.80;70.50;;;;;;5073713;28;20466;-71
2022/09/22 01:07:08;;;;;;;4.33;3.60;;;12.70;70.40;;;;;;5073984;28;20467;-71
2022/09/22 01:09:35;;;;;;;5.60;4.70;;;12.70;70.50;;;;;;5074221;28;20889;-72
2022/09/22 01:12:04;;;;;;;5.20;4.30;;;12.70;70.60;;;;;;5074048;28;20959;-72
2022/09/22 01:14:40;;;;;;;5.00;4.60;;;12.70;70.70;;;;;;5073760;28;20471;-72
2022/09/22 01:17:16;;;;;;;4.77;4.07;;;12.70;70.70;;;;;;5076984;28;20446;-72
2022/09/22 01:20:16;;;;;;;5.70;5.20;;;12.70;70.80;;;;;;5077275;28;20443;-71
2022/09/22 01:23:05;;;;;;;5.40;3.53;;;12.60;70.80;;;;;;5064389;28;20480;-72
2022/09/22 01:25:55;;;;;;;4.97;4.47;;;12.60;70.90;;;;;;5078030;28;20444;-72
2022/09/22 01:28:45;;;;;;;5.27;4.77;;;12.60;71.00;;;;;;5077577;28;20442;-72
2022/09/22 01:31:21;;;;;;;4.60;4.20;;;12.50;71.10;;;;;;5077400;28;20435;-71
2022/09/22 01:33:52;;;;;;;4.83;3.60;;;12.50;71.10;;;;;;5077447;28;20554;-71
2022/09/22 01:36:25;;;;;;;5.20;4.60;;;12.50;71.40;;;;;;5077361;28;20455;-72
2022/09/22 01:39:05;;;;;;;3.63;3.33;;;12.40;71.40;;;;;;5077080;28;20818;-71
2022/09/22 01:41:43;;;;;;;4.57;4.17;;;12.30;71.40;;;;;;5077642;28;20429;-71
2022/09/22 01:44:16;;;;;;;4.67;4.27;;;12.30;71.70;;;;;;5077175;28;20570;-71
2022/09/22 01:46:53;;;;;;;4.33;3.53;;;12.20;71.70;;;;;;5076918;28;20435;-71
2022/09/22 01:49:22;;;;;;;4.50;4.13;;;12.20;71.80;;;;;;5077578;28;20511;-71
2022/09/22 01:51:53;;;;;;;4.27;3.93;;;12.20;71.80;;;;;;5077459;28;20458;-71
2022/09/22 01:54:27;;;;;;;3.97;3.57;;;12.20;71.80;;;;;;5076926;28;20475;-71
2022/09/22 01:56:57;;;;;;;4.50;3.30;;;12.20;72.00;;;;;;5076755;28;20463;-71
2022/09/22 01:59:27;;;;;;;4.80;4.40;;;12.10;71.90;;;;;;5077561;28;20444;-71
2022/09/22 02:02:01;;;;;;;4.10;3.73;;;12.10;71.90;;;;;;5077354;28;20433;-71
2022/09/22 02:04:32;;;;;;;5.30;4.07;;;12.10;72.00;;;;;;5077277;28;20479;-72
2022/09/22 02:07:02;;;;;;;4.80;4.40;;;12.10;72.00;;;;;;5076827;28;20443;-71
2022/09/22 02:09:33;;;;;;;7.37;4.87;;;12.00;71.90;;;;;;5077006;28;20504;-71
2022/09/22 02:12:00;;;;;;;5.00;3.83;;;12.10;72.10;;;;;;5077225;28;20436;-71
2022/09/22 02:14:28;;;;;;;4.83;4.40;;;12.00;72.10;;;;;;5076488;28;20476;-71
2022/09/22 02:16:56;;;;;;;4.30;3.90;;;12.00;72.10;;;;;;5077108;28;20473;-71
2022/09/22 02:19:27;;;;;;;5.13;4.63;;;12.00;72.10;;;;;;5077065;28;20445;-71
2022/09/22 02:21:54;;;;;;;4.80;4.30;;;12.00;72.10;;;;;;5077275;28;20444;-71
2022/09/22 02:24:30;;;;;;;5.07;4.67;;;12.00;72.20;;;;;;5076643;28;20471;-71
2022/09/22 02:26:59;;;;;;;6.53;3.80;;;11.90;72.10;;;;;;5076869;28;20921;-71
2022/09/22 02:29:29;;;;;;;5.37;4.87;;;11.90;72.10;;;;;;5076899;28;20488;-71
2022/09/22 02:31:59;;;;;;;7.10;4.23;;;12.00;72.20;;;;;;5076837;28;20450;-71
2022/09/22 02:34:27;;;;;;;5.27;4.70;;;11.90;72.20;;;;;;5076389;28;20534;-72
2022/09/22 02:37:01;;;;;;;4.60;4.20;;;11.90;72.20;;;;;;5076932;28;20450;-72
2022/09/22 02:39:33;;;;;;;4.20;3.90;;;11.90;72.30;;;;;;5076198;28;20436;-71
2022/09/22 02:42:19;;;;;;;7.10;4.53;;;11.90;72.40;;;;;;5076599;28;20447;-72
2022/09/22 02:44:51;;;;;;;4.30;3.83;;;11.90;72.50;;;;;;5076550;28;20432;-72
2022/09/22 02:47:26;;;;;;;4.77;4.20;;;11.80;72.50;;;;;;5075862;28;20438;-71
2022/09/22 02:49:54;;;;;;;5.70;4.90;;;11.80;72.50;;;;;;5075540;28;20498;-71
2022/09/22 02:52:24;;;;;;;6.10;4.33;;;11.80;72.70;;;;;;5076093;28;20557;-71
2022/09/22 02:54:51;;;;;;;5.10;4.60;;;11.80;72.70;;;;;;5076160;28;20458;-71
2022/09/22 02:57:17;;;;;;;5.60;4.37;;;11.70;72.70;;;;;;5076910;28;20469;-71
2022/09/22 02:59:44;;;;;;;5.03;4.53;;;11.70;72.80;;;;;;5076570;28;20455;-71
2022/09/22 03:02:11;;;;;;;4.63;4.23;;;11.70;72.90;;;;;;5077075;28;20810;-71
2022/09/22 03:04:39;;;;;;;4.77;4.03;;;11.70;73.00;;;;;;5076390;28;20451;-72
2022/09/22 03:07:06;;;;;;;7.60;4.50;;;11.70;73.00;;;;;;5076333;28;20954;-71
2022/09/22 03:09:33;;;;;;;4.60;4.20;;;11.70;73.00;;;;;;5076115;28;20527;-71
2022/09/22 03:12:00;;;;;;;5.80;4.20;;;11.70;73.10;;;;;;5076845;28;20452;-71
2022/09/22 03:14:27;;;;;;;5.97;4.20;;;11.60;72.90;;;;;;5077357;28;20468;-71
2022/09/22 03:16:54;;;;;;;5.77;4.53;;;11.60;73.00;;;;;;5077655;28;20464;-71
2022/09/22 03:19:20;;;;;;;6.13;4.43;;;11.60;73.10;;;;;;5079677;28;20451;-71
2022/09/22 03:21:48;;;;;;;6.10;4.40;;;11.60;73.20;;;;;;5078996;28;20454;-71
2022/09/22 03:24:15;;;;;;;4.47;4.07;;;11.50;73.20;;;;;;5077873;28;20482;-71
2022/09/22 03:26:42;;;;;;;10.37;4.80;;;11.50;73.20;;;;;;5077938;28;20447;-72
2022/09/22 03:29:09;;;;;;;4.30;3.90;;;11.50;73.30;;;;;;5077188;28;20494;-71
2022/09/22 03:31:36;;;;;;;6.30;3.87;;;11.50;73.30;;;;;;5077053;28;20452;-70
2022/09/22 03:34:03;;;;;;;4.73;4.17;;;11.50;73.40;;;;;;5077638;28;20489;-71
2022/09/22 03:36:30;;;;;;;7.57;4.30;;;11.50;73.50;;;;;;5076401;28;20455;-71
2022/09/22 03:38:58;;;;;;;7.80;4.80;;;11.50;73.60;;;;;;5076812;28;20455;-71
2022/09/22 03:41:24;;;;;;;4.70;4.30;;;11.50;73.70;;;;;;5077763;28;20451;-71
2022/09/22 03:43:51;;;;;;;4.13;3.83;;;11.40;73.60;;;;;;5078815;28;20480;-71
2022/09/22 03:46:18;;;;;;;5.33;4.17;;;11.30;73.60;;;;;;5078078;28;20459;-71
2022/09/22 03:48:45;;;;;;;4.47;4.13;;;11.30;73.90;;;;;;5078026;28;20451;-71
2022/09/22 03:51:12;;;;;;;3.90;3.60;;;11.30;74.00;;;;;;5077768;28;20483;-71
2022/09/22 03:53:38;;;;;;;5.47;4.87;;;11.30;74.30;;;;;;5076863;28;20470;-71
2022/09/22 03:56:09;;;;;;;5.13;4.50;;;11.20;74.50;;;;;;5076527;28;20457;-70
2022/09/22 03:58:37;;;;;;;4.77;4.33;;;11.20;74.70;;;;;;5077099;28;20800;-70
2022/09/22 04:01:05;;;;;;;5.80;5.20;;;11.20;74.90;;;;;;5076614;28;20934;-70
2022/09/22 04:03:32;;;;;;;9.03;5.43;;;11.20;75.00;;;;;;5080221;28;20484;-70
2022/09/22 04:05:59;;;;;;;6.40;4.57;;;11.10;74.90;;;;;;5081211;28;20456;-71
2022/09/22 04:08:28;;;;;;;5.77;4.23;;;11.10;75.10;;;;;;5081170;28;20451;-71
2022/09/22 04:10:56;;;;;;;5.00;4.50;;;11.10;75.10;;;;;;5081534;28;20517;-71
2022/09/22 04:13:24;;;;;;;8.70;4.83;;;11.10;75.20;;;;;;5087299;28;20474;-72
2022/09/22 04:15:51;;;;;;;5.00;4.50;;;11.00;75.20;;;;;;5095680;28;20446;-71
2022/09/22 04:18:17;;;;;;;5.77;5.03;;;11.10;75.50;;;;;;5093522;28;20450;-71
2022/09/22 04:20:44;;;;;;;5.13;4.67;;;11.00;75.40;;;;;;5081648;28;20442;-71
2022/09/22 04:23:12;;;;;;;6.00;4.47;;;11.00;75.60;;;;;;5080227;28;20575;-71
2022/09/22 04:25:39;;;;;;;6.83;5.03;;;10.90;75.70;;;;;;5080893;28;20446;-71
2022/09/22 04:28:06;;;;;;;5.33;4.50;;;10.90;76.10;;;;;;5080862;28;20450;-71
2022/09/22 04:30:35;;;;;;;5.90;4.77;;;10.90;76.30;;;;;;5087281;28;20468;-70
2022/09/22 04:33:02;;;;;;;6.20;4.93;;;10.80;76.10;;;;;;5094238;28;20497;-71
2022/09/22 04:35:29;;;;;;;5.43;4.40;;;10.70;76.30;;;;;;5075851;28;20449;-72
2022/09/22 04:37:56;;;;;;;5.33;4.27;;;10.80;77.10;;;;;;5076215;28;20460;-71
2022/09/22 04:40:24;;;;;;;4.13;3.83;;;10.80;77.50;;;;;;5073802;28;20971;-71
2022/09/22 04:42:51;;;;;;;5.97;4.33;;;10.80;77.50;;;;;;5074925;28;20466;-71
2022/09/22 04:45:18;;;;;;;6.10;4.33;;;10.80;77.50;;;;;;5075223;28;20866;-71
2022/09/22 04:47:46;;;;;;;6.13;4.60;;;10.80;77.30;;;;;;5074882;28;20449;-71
2022/09/22 04:50:13;;;;;;;4.33;3.93;;;10.80;78.00;;;;;;5075387;28;20474;-71
2022/09/22 04:52:45;;;;;;;4.87;4.13;;;10.80;77.20;;;;;;5078049;28;20843;-71
2022/09/22 04:55:11;;;;;;;7.70;4.50;;;10.80;77.10;;;;;;5077885;28;20465;-72
2022/09/22 04:57:38;;;;;;;5.33;4.80;;;10.80;77.00;;;;;;5077996;28;20433;-71
2022/09/22 05:00:06;;;;;;;5.97;3.93;;;10.80;77.00;;;;;;5077561;28;20446;-70
2022/09/22 05:02:35;;;;;;;6.87;5.67;;;10.80;77.00;;;;;;5077351;28;20480;-72
2022/09/22 05:05:04;;;;;;;6.30;4.80;;;10.80;76.90;;;;;;5077544;28;20453;-71
2022/09/22 05:07:31;;;;;;;6.13;4.70;;;10.80;77.00;;;;;;5077559;28;20543;-71
2022/09/22 05:09:58;;;;;;;6.10;5.17;;;10.80;77.00;;;;;;5077778;28;20470;-71
2022/09/22 05:12:25;;;;;;;5.03;4.53;;;10.80;77.10;;;;;;5077195;28;20455;-71
2022/09/22 05:14:51;;;;;;;6.30;4.40;;;10.80;77.20;;;;;;5078216;28;20457;-71
2022/09/22 05:17:18;;;;;;;7.97;4.70;;;10.80;77.20;;;;;;5077082;28;20469;-71
2022/09/22 05:19:45;;;;;;;8.50;4.87;;;10.80;77.20;;;;;;5077293;28;20964;-71
2022/09/22 05:22:13;;;;;;;9.50;4.67;;;10.80;77.20;;;;;;5077335;28;20496;-71
2022/09/22 05:24:41;;;;;;;9.73;4.80;;;10.80;77.20;;;;;;5077288;28;20457;-70
2022/09/22 05:27:08;;;;;;;7.17;4.90;;;10.80;77.30;;;;;;5077488;28;20456;-71
2022/09/22 05:29:34;;;;;;;7.40;4.83;;;10.80;77.40;;;;;;5077170;28;20951;-71
2022/09/22 05:32:02;;;;;;;8.13;4.20;;;10.80;77.50;;;;;;5077555;28;20466;-71
2022/09/22 05:34:28;;;;;;;7.93;5.50;;;10.70;77.60;;;;;;5077622;28;20480;-71
2022/09/22 05:36:55;;;;;;;6.83;5.07;;;10.80;77.70;;;;;;5077239;28;20450;-71
2022/09/22 05:39:23;;;;;;;7.17;5.40;;;10.70;77.70;;;;;;5077614;28;20449;-71
2022/09/22 05:41:50;;;;;;;11.00;5.97;;;10.70;77.90;;;;;;5078286;28;20452;-71
2022/09/22 05:44:17;;;;;;;8.27;5.67;;;10.70;78.10;;;;;;5078858;28;20473;-70
2022/09/22 05:46:45;;;;;;;7.50;5.00;;;10.70;78.20;;;;;;5078034;28;20549;-71
2022/09/22 05:49:12;;;;;;;6.30;5.70;;;10.70;78.30;;;;;;5077597;28;20962;-71
2022/09/22 05:51:39;;;;;;;7.50;5.60;;;10.70;78.40;;;;;;5078427;28;20858;-70
2022/09/22 05:54:05;;;;;;;9.17;6.20;;;10.70;78.50;;;;;;5078975;28;20507;-70
2022/09/22 05:56:34;;;;;;;6.13;5.40;;;10.80;78.70;;;;;;5078645;28;20457;-70
2022/09/22 05:59:00;;;;;;;9.83;6.10;;;10.70;78.70;;;;;;5078463;28;20461;-70
2022/09/22 06:01:27;;;;;;;7.63;6.60;;;10.80;79.00;;;;;;5078182;28;20441;-69
2022/09/22 06:03:54;;;;;;;13.27;5.80;;;10.70;79.00;;;;;;5078281;28;20478;-70
2022/09/22 06:06:21;;;;;;;12.57;6.17;;;10.70;79.10;;;;;;5077814;28;20464;-70
2022/09/22 06:08:47;;;;;;;8.30;6.20;;;10.80;79.40;;;;;;5077006;28;20460;-71
2022/09/22 06:11:14;;;;;;;26.93;6.90;;;10.80;79.70;;;;;;5075630;28;20486;-72
2022/09/22 06:13:43;;;;;;;9.00;7.07;;;10.80;79.90;;;;;;5075442;28;20464;-72
2022/09/22 06:16:09;;;;;;;7.83;6.30;;;10.80;80.20;;;;;;5075628;28;20454;-72
2022/09/22 06:18:36;;;;;;;9.67;7.00;;;10.90;80.50;;;;;;5075510;28;20447;-72
2022/09/22 06:21:03;;;;;;;9.50;6.70;;;10.90;80.90;;;;;;5075547;28;20458;-71
2022/09/22 06:23:30;;;;;;;11.10;7.73;;;11.00;81.50;;;;;;5075131;28;20485;-71
2022/09/22 06:25:58;;;;;;;10.77;7.00;;;11.00;81.80;;;;;;5075438;28;20450;-71
2022/09/22 06:28:24;;;;;;;10.30;6.77;;;11.00;82.30;;;;;;5075345;28;20489;-71
2022/09/22 06:30:52;;;;;;;10.47;6.77;;;11.00;82.60;;;;;;5075292;28;20482;-71
2022/09/22 06:33:20;;;;;;;11.80;7.37;;;11.10;82.80;;;;;;5074853;28;20482;-72
2022/09/22 06:35:47;;;;;;;16.17;9.40;;;11.10;83.10;;;;;;5075063;28;20454;-72
2022/09/22 06:38:15;;;;;;;10.83;6.90;;;11.20;83.50;;;;;;5075168;28;20494;-71
2022/09/22 06:40:43;;;;;;;14.53;8.27;;;11.20;84.00;;;;;;5074992;28;20449;-71
2022/09/22 06:43:21;;;;;;;10.00;6.73;;;11.30;84.50;;;;;;5075047;28;20486;-72
2022/09/22 06:45:49;;;;;;;10.00;6.40;;;11.30;84.90;;;;;;5075109;28;20439;-72
2022/09/22 06:48:18;;;;;;;9.73;6.73;;;11.40;85.30;;;;;;5075072;28;20450;-71
2022/09/22 06:50:50;;;;;;;9.10;7.07;;;11.40;85.70;;;;;;5074847;28;20482;-72
2022/09/22 06:53:17;;;;;;;9.07;6.27;;;11.50;86.20;;;;;;5074728;28;20570;-72
2022/09/22 06:55:44;;;;;;;13.43;7.10;;;11.60;86.60;;;;;;5074159;28;21037;-71
2022/09/22 06:58:12;;;;;;;10.63;6.67;;;11.70;86.80;;;;;;5074631;28;20447;-71
2022/09/22 07:00:41;;;;;;;9.80;7.10;;;11.70;86.90;;;;;;5074633;28;20483;-70
2022/09/22 07:03:16;;;;;;;9.97;6.83;;;11.80;87.00;;;;;;5074416;28;20496;-71
2022/09/22 07:05:52;;;;;;;10.60;6.40;;;11.80;86.90;;;;;;5074163;28;20817;-71
2022/09/22 07:08:19;;;;;;;12.87;6.73;;;11.90;87.00;;;;;;5074463;28;20498;-71
2022/09/22 07:10:51;;;;;;;6.47;5.77;;;11.90;87.20;;;;;;5074424;28;20474;-71
2022/09/22 07:13:17;;;;;;;9.63;6.83;;;12.00;87.00;;;;;;5072999;28;21002;-71
2022/09/22 07:15:44;;;;;;;11.13;6.90;;;12.10;87.30;;;;;;5074347;28;20459;-71
2022/09/22 07:18:11;;;;;;;15.43;6.90;;;12.20;87.40;;;;;;5074504;28;20452;-72
2022/09/22 07:20:37;;;;;;;8.63;7.07;;;12.30;87.40;;;;;;5074356;28;20455;-72
2022/09/22 07:23:12;;;;;;;11.20;6.47;;;12.40;87.00;;;;;;5074110;28;20469;-72
2022/09/22 07:25:39;;;;;;;9.17;6.30;;;12.50;87.10;;;;;;5074244;28;20440;-71
2022/09/22 07:28:10;;;;;;;8.27;7.23;;;12.60;86.80;;;;;;5073827;28;20830;-71
2022/09/22 07:30:39;;;;;;;7.90;6.70;;;12.70;86.50;;;;;;5074129;28;20483;-71
2022/09/22 07:33:06;;;;;;;9.77;5.83;;;12.80;86.40;;;;;;5073989;28;20570;-71
2022/09/22 07:35:36;;;;;;;14.27;8.60;;;12.90;86.10;;;;;;5073990;28;20529;-71
2022/09/22 07:38:04;;;;;;;11.53;7.27;;;13.00;86.00;;;;;;5073791;28;20837;-71
2022/09/22 07:40:31;;;;;;;10.30;7.80;;;13.10;85.90;;;;;;5074114;28;20452;-71
2022/09/22 07:42:58;;;;;;;14.03;7.60;;;13.20;85.60;;;;;;5073958;28;20473;-71
2022/09/22 07:45:24;;;;;;;7.80;6.63;;;13.30;85.10;;;;;;5074068;28;20449;-71
2022/09/22 07:50:35;;;;;;;7.83;5.80;;;13.50;83.90;;;;;;5073875;28;20464;-72
2022/09/22 07:53:03;;;;;;;9.07;7.03;;;13.70;83.20;;;;;;5073880;28;20825;-71
2022/09/22 07:55:35;;;;;;;7.90;6.07;;;13.80;82.70;;;;;;5073985;28;20497;-72
2022/09/22 07:58:02;;;;;;;16.77;8.17;;;13.90;82.60;;;;;;5073896;28;20815;-72
2022/09/22 08:00:31;;;;;;;8.43;7.00;;;14.00;82.20;;;;;;5073895;28;20809;-72
2022/09/22 08:02:58;;;;;;;8.33;5.80;;;14.10;82.10;;;;;;5073746;28;20855;-72
2022/09/22 08:05:27;;;;;;;10.27;6.30;;;14.30;81.10;;;;;;5073396;28;20978;-71
2022/09/22 08:07:56;;;;;;;11.40;6.70;;;14.40;80.30;;;;;;5073847;28;20447;-72
2022/09/22 08:10:24;;;;;;;11.43;7.07;;;14.50;80.20;;;;;;5073679;28;20821;-72
2022/09/22 08:12:53;;;;;;;9.00;7.20;;;14.70;79.70;;;;;;5073710;28;20476;-71
2022/09/22 08:15:22;;;;;;;13.23;6.63;;;14.80;79.60;;;;;;5074050;28;20543;-72
2022/09/22 08:17:49;;;;;;;11.97;7.57;;;14.90;79.40;;;;;;5073811;28;20513;-73
2022/09/22 08:20:17;;;;;;;11.87;6.90;;;15.10;78.70;;;;;;5073932;28;20497;-72
2022/09/22 08:22:44;;;;;;;12.90;5.73;;;15.20;78.50;;;;;;5073510;28;20521;-73
2022/09/22 08:25:12;;;;;;;7.17;5.67;;;15.30;77.60;;;;;;5075033;28;20494;-73
2022/09/22 08:27:40;;;;;;;13.60;5.93;;;15.40;77.50;;;;;;5077440;28;20864;-73
2022/09/22 08:30:10;;;;;;;11.20;6.10;;;15.50;76.50;;;;;;5077698;28;20455;-72
2022/09/22 08:32:38;;;;;;;7.40;5.30;;;15.70;76.30;;;;;;5077048;28;20488;-72
2022/09/22 08:35:07;;;;;;;8.17;5.97;;;15.80;76.10;;;;;;5077419;28;20455;-73
2022/09/22 08:37:36;;;;;;;8.90;5.40;;;15.90;75.70;;;;;;5077362;28;20463;-72
2022/09/22 08:40:04;;;;;;;7.63;4.93;;;16.00;75.50;;;;;;5078213;28;20854;-72
2022/09/22 08:42:33;;;;;;;8.53;5.07;;;16.10;74.10;;;;;;5077268;28;20575;-73
2022/09/22 08:45:06;;;;;;;7.40;3.83;;;16.20;73.00;;;;;;5077282;28;20449;-73
2022/09/22 08:53:18;;;;;;;6.43;3.40;;;16.50;71.40;;;;;;5077106;28;20569;-73
2022/09/22 08:55:49;;;;;;;4.90;4.10;;;16.60;69.70;;;;;;5076785;28;20460;-73
2022/09/22 08:58:25;;;;;;;7.90;5.13;;;16.80;68.80;;;;;;5076974;28;20429;-73
2022/09/22 09:01:00;;;;;;;5.60;3.77;;;16.90;69.30;;;;;;5077312;28;20436;-73
2022/09/22 09:03:40;;;;;;;5.20;4.03;;;17.10;70.00;;;;;;5076654;28;20474;-74
2022/09/22 09:06:12;;;;;;;5.60;4.47;;;17.20;70.10;;;;;;5076469;28;20433;-73
2022/09/22 09:09:14;;;;;;;9.47;5.20;;;17.40;71.20;;;;;;5076894;28;20455;-72
2022/09/22 09:11:56;;;;;;;5.23;4.27;;;17.60;71.30;;;;;;5076657;28;20491;-73
2022/09/22 09:14:44;;;;;;;5.23;3.97;;;17.80;71.40;;;;;;5076669;28;20468;-73
2022/09/22 09:17:13;;;;;;;8.63;4.40;;;18.00;70.90;;;;;;5076735;28;20433;-73
2022/09/22 09:19:43;;;;;;;4.80;3.10;;;18.10;71.70;;;;;;5076902;28;20471;-73
2022/09/22 09:22:17;;;;;;;6.80;2.90;;;18.30;68.90;;;;;;5076439;28;20936;-74
2022/09/22 09:24:49;;;;;;;5.37;2.60;;;18.50;64.70;;;;;;5076159;28;20953;-74
2022/09/22 09:27:20;;;;;;;4.67;2.23;;;18.70;64.10;;;;;;5076373;28;20439;-73
2022/09/22 09:30:00;;;;;;;3.37;1.80;;;18.90;58.80;;;;;;5076619;28;20467;-73
2022/09/22 09:32:33;;;;;;;3.50;1.90;;;19.00;55.90;;;;;;5076245;28;20516;-73
2022/09/22 09:35:02;;;;;;;3.27;2.10;;;19.10;54.80;;;;;;5076465;28;20476;-73
2022/09/22 09:37:30;;;;;;;4.23;3.20;;;19.30;54.50;;;;;;5075535;28;20967;-73
2022/09/22 09:40:00;;;;;;;4.27;2.80;;;19.40;55.60;;;;;;5076141;28;20441;-73
2022/09/22 09:42:32;;;;;;;5.67;3.50;;;19.70;56.70;;;;;;5076381;28;20852;-73
2022/09/22 09:45:01;;;;;;;5.47;3.47;;;20.10;55.50;;;;;;5077131;28;20437;-73
2022/09/22 09:47:46;;;;;;;6.17;3.33;;;20.40;56.50;;;;;;5077056;28;21019;-73
2022/09/22 09:50:15;;;;;;;5.80;3.10;;;20.80;56.50;;;;;;5077001;28;20460;-73
2022/09/22 09:52:42;;;;;;;5.63;2.90;;;21.20;55.30;;;;;;5076098;28;20489;-73
2022/09/22 09:55:20;;;;;;;9.83;3.50;;;21.60;51.00;;;;;;5075673;28;20783;-73
2022/09/22 09:58:07;;;;;;;4.23;2.60;;;21.90;50.20;;;;;;5075736;28;20935;-73
2022/09/22 10:00:51;;;;;;;9.20;2.63;;;22.30;49.50;;;;;;5076087;28;20433;-73
2022/09/22 10:03:25;;;;;;;4.67;2.70;;;22.70;47.40;;;;;;5076236;28;20515;-73
2022/09/22 10:05:59;;;;;;;2.70;1.43;;;23.00;46.70;;;;;;5076142;28;20438;-73
2022/09/22 10:08:27;;;;;;;2.37;1.33;;;23.30;42.80;;;;;;5075977;28;20472;-73
2022/09/22 10:10:57;;;;;;;5.20;1.80;;;23.60;40.40;;;;;;5075438;28;20948;-73
2022/09/22 10:13:28;;;;;;;3.13;1.40;;;23.90;38.70;;;;;;5075174;28;20921;-73
2022/09/22 10:16:06;;;;;;;2.43;1.43;;;24.20;38.30;;;;;;5076005;28;20440;-73
2022/09/22 10:18:39;;;;;;;2.57;1.67;;;24.60;38.60;;;;;;5075769;28;20440;-74
2022/09/22 10:21:14;;;;;;;3.10;2.37;;;25.10;38.00;;;;;;5076384;28;20974;-73
2022/09/22 10:23:43;;;;;;;2.33;1.67;;;25.60;37.60;;;;;;5075270;28;20904;-73
2022/09/22 10:26:16;;;;;;;1.83;1.30;;;26.10;36.10;;;;;;5075947;28;20524;-72
2022/09/22 10:28:46;;;;;;;3.10;1.67;;;26.60;35.10;;;;;;5077247;28;20912;-72
2022/09/22 10:31:23;;;;;;;2.67;2.13;;;27.00;32.50;;;;;;5075497;28;20438;-72
2022/09/22 10:33:55;;;;;;;3.60;2.00;;;27.50;31.40;;;;;;5075190;28;20932;-72
2022/09/22 10:36:25;;;;;;;4.33;2.50;;;28.00;31.80;;;;;;5075206;28;20464;-73
2022/09/22 10:38:54;;;;;;;3.30;2.00;;;28.60;30.60;;;;;;5074765;28;20932;-73
2022/09/22 10:41:26;;;;;;;2.40;1.50;;;29.10;29.40;;;;;;5074938;28;20476;-73
2022/09/22 10:43:58;;;;;;;3.63;1.90;;;29.70;30.10;;;;;;5075085;28;20473;-73
2022/09/22 10:46:51;;;;;;;6.47;2.33;;;30.40;29.80;;;;;;5075535;28;20536;-73
2022/09/22 10:49:30;;;;;;;5.00;3.23;;;31.10;29.10;;;;;;5074543;28;20456;-73
2022/09/22 10:52:15;;;;;;;4.27;2.27;;;31.60;27.40;;;;;;5074718;28;20460;-73
2022/09/22 10:55:02;;;;;;;5.10;2.77;;;32.00;27.00;;;;;;5075075;28;20437;-73
2022/09/22 10:57:52;;;;;;;5.60;2.40;;;32.30;25.30;;;;;;5073094;28;20428;-73
2022/09/22 11:00:22;;;;;;;2.43;2.20;;;32.70;26.80;;;;;;5074711;28;20440;-73
2022/09/22 11:03:23;;;;;;;3.50;1.80;;;33.10;25.60;;;;;;5075299;28;20582;-74
2022/09/22 11:14:44;;;;;;;1.60;1.50;;;34.00;21.90;;;;;;5074792;28;20452;-74
2022/09/22 11:17:21;;;;;;;3.57;2.63;;;34.00;21.40;;;;;;5074734;28;20424;-74
2022/09/22 11:20:27;;;;;;;2.40;2.20;;;34.10;21.30;;;;;;5073588;28;20435;-74
2022/09/22 11:23:06;;;;;;;3.37;2.03;;;34.10;21.90;;;;;;5043779;28;20483;-74
2022/09/22 11:26:00;;;;;;;2.00;1.80;;;34.20;21.60;;;;;;5074137;28;20929;-74
2022/09/22 11:28:49;;;;;;;2.03;1.50;;;34.50;21.10;;;;;;5074360;28;20486;-74
2022/09/22 11:31:28;;;;;;;5.07;2.40;;;35.00;21.70;;;;;;5074418;28;20951;-74
2022/09/22 11:34:11;;;;;;;3.00;2.13;;;35.50;20.30;;;;;;5074205;28;20472;-74
2022/09/22 11:36:48;;;;;;;3.53;2.03;;;35.90;20.00;;;;;;5074458;28;20236;-74
2022/09/22 11:39:31;;;;;;;2.70;2.13;;;36.30;19.20;;;;;;5074097;28;20205;-74
2022/09/22 11:42:15;;;;;;;2.63;2.10;;;36.70;19.20;;;;;;5074581;28;20186;-74
2022/09/22 11:44:50;;;;;;;2.50;2.13;;;36.80;18.90;;;;;;5075007;28;20193;-74
2022/09/22 11:47:40;;;;;;;5.53;1.97;;;36.90;18.50;;;;;;5074747;28;20189;-74
2022/09/22 11:50:38;;;;;;;3.50;1.90;;;37.20;18.10;;;;;;5073665;28;20190;-74
2022/09/22 11:53:33;;;;;;;1.75;1.60;;;37.60;18.70;;;;;;5039865;28;20596;-74
2022/09/22 11:56:31;;;;;;;1.88;1.23;;;38.10;18.70;;;;;;5073859;28;20210;-74
2022/09/22 11:59:04;;;;;;;4.00;2.47;;;38.70;17.50;;;;;;5073748;28;20212;-74
2022/09/22 12:01:36;;;;;;;3.08;2.00;;;39.00;16.90;;;;;;5073769;28;20562;-74
2022/09/22 12:04:11;;;;;;;2.03;1.42;;;39.30;18.00;;;;;;5074003;28;20704;-74
2022/09/22 12:06:42;;;;;;;2.13;1.42;;;39.70;17.20;;;;;;5074870;28;20223;-75
2022/09/22 12:09:21;;;;;;;2.15;1.58;;;39.80;15.90;;;;;;5073868;28;20642;-74
2022/09/22 12:11:49;;;;;;;1.73;1.35;;;39.90;15.00;;;;;;5074110;28;20206;-74
2022/09/22 12:14:17;;;;;;;2.70;2.00;;;40.10;15.30;;;;;;5074702;28;20229;-75
2022/09/22 12:16:51;;;;;;;1.83;1.60;;;40.10;14.60;;;;;;5074779;28;20209;-75
2022/09/22 12:19:29;;;;;;;1.85;1.70;;;40.10;14.60;;;;;;5074401;28;20197;-74
2022/09/22 12:22:03;;;;;;;1.42;1.20;;;40.30;15.40;;;;;;5073886;28;20556;-74
2022/09/22 12:24:30;;;;;;;1.50;1.40;;;40.30;16.30;;;;;;5073420;28;20242;-74
2022/09/22 12:26:57;;;;;;;5.18;1.60;;;40.70;15.60;;;;;;5073733;28;20202;-74
2022/09/22 12:29:29;;;;;;;1.55;1.23;;;41.00;15.00;;;;;;5074138;28;20213;-74
2022/09/22 12:31:58;;;;;;;1.70;1.60;;;41.40;14.80;;;;;;5073052;28;20213;-74
2022/09/22 12:34:28;;;;;;;2.72;2.53;;;41.80;15.60;;;;;;5073338;28;20317;-75
2022/09/22 12:36:58;;;;;;;3.78;2.80;;;42.20;15.30;;;;;;5074311;28;20237;-75
2022/09/22 12:39:27;;;;;;;2.30;1.90;;;42.30;13.90;;;;;;5073918;28;20248;-74
2022/09/22 12:41:58;;;;;;;2.75;2.10;;;42.40;14.50;;;;;;5073697;28;20201;-75
2022/09/22 12:44:29;;;;;;;2.78;1.95;;;42.50;14.70;;;;;;5073237;28;20226;-75
2022/09/22 12:47:01;;;;;;;2.33;1.58;;;42.50;14.00;;;;;;5073068;28;20218;-75
2022/09/22 12:49:28;;;;;;;1.45;1.23;;;42.00;13.50;;;;;;5073318;28;20205;-74
2022/09/22 12:51:55;;;;;;;1.23;1.13;;;41.80;13.80;;;;;;5072954;28;20245;-75
2022/09/22 12:54:46;;;;;;;2.75;1.58;;;42.00;14.60;;;;;;5072962;28;20222;-75
2022/09/22 12:57:28;;;;;;;1.70;1.60;;;42.30;15.30;;;;;;5072755;28;20214;-75
2022/09/22 13:00:21;;;;;;;4.70;2.00;;;42.60;15.20;;;;;;5073162;28;20213;-74
2022/09/22 13:02:50;;;;;;;1.55;1.45;;;43.00;14.80;;;;;;5070475;28;20218;-75
2022/09/22 13:05:34;;;;;;;3.20;2.00;;;43.20;14.00;;;;;;5073100;28;20202;-75
2022/09/22 13:08:01;;;;;;;2.95;2.00;;;43.50;13.40;;;;;;5073261;28;20213;-75
2022/09/22 13:10:41;;;;;;;2.30;2.00;;;43.60;14.00;;;;;;5073840;28;20205;-74
2022/09/22 13:13:21;;;;;;;1.75;1.65;;;43.70;14.20;;;;;;5076732;28;20261;-75
2022/09/22 13:15:58;;;;;;;2.90;1.42;;;43.80;14.40;;;;;;5077217;28;20205;-74
2022/09/22 13:18:33;;;;;;;1.75;1.60;;;44.10;14.40;;;;;;5076674;28;20577;-74
2022/09/22 13:21:02;;;;;;;1.63;1.48;;;44.30;14.40;;;;;;5076631;28;20201;-75
2022/09/22 13:23:29;;;;;;;1.95;1.50;;;44.50;14.00;;;;;;5076671;28;20593;-74
2022/09/22 13:26:05;;;;;;;1.33;1.10;;;44.60;14.20;;;;;;5076702;28;20186;-75